< Typhoon 197424 1974 Season Typhoon 197426 >
Typhoon 197425 (DELLA)
General InformationTrack Information on Google Maps || Disaster Info.ResourceGoogle EarthGE AnimationAtom FeedGeoJSON
Detalied Best Track (Time Zone = UTC)
Year Month Day Hour Lat. Long. Pressure (hPa) Wind (kt) Class Image Chart
1974 10 18 00 10.0 150.0 1008 0 2 -- Chart
1974 10 18 06 10.5 148.5 1004 0 2 -- Chart
1974 10 18 12 11.0 147.0 1006 0 2 -- Chart
1974 10 18 18 11.4 145.0 1006 0 2 -- Chart
1974 10 19 00 11.9 142.9 1008 0 2 -- Chart
1974 10 19 06 12.2 141.3 1006 0 2 -- Chart
1974 10 19 12 12.4 139.4 1008 0 2 -- Chart
1974 10 19 18 12.6 137.0 1008 0 2 -- Chart
1974 10 20 00 13.0 134.5 1006 0 2 -- Chart
1974 10 20 06 13.0 133.0 1006 0 2 -- Chart
1974 10 20 12 13.1 131.5 1006 0 2 -- Chart
1974 10 20 18 13.2 130.4 1004 0 2 -- Chart
1974 10 21 00 13.2 129.0 1000 0 2 -- Chart
1974 10 21 06 13.6 127.9 994 0 9 -- Chart
1974 10 21 12 14.6 126.7 992 0 9 -- Chart
1974 10 21 18 15.4 125.6 990 0 9 -- Chart
1974 10 22 00 16.5 125.1 990 0 9 -- Chart
1974 10 22 06 17.3 125.0 985 0 9 -- Chart
1974 10 22 12 18.2 124.3 980 0 9 -- Chart
1974 10 22 18 18.7 123.3 980 0 9 -- Chart
1974 10 23 00 19.2 122.2 975 0 9 -- Chart
1974 10 23 06 19.2 121.4 970 0 9 -- Chart
1974 10 23 12 19.0 121.0 970 0 9 -- Chart
1974 10 23 18 18.6 120.3 970 0 9 -- Chart
1974 10 24 00 18.1 119.5 965 0 9 -- Chart
1974 10 24 06 18.1 119.0 965 0 9 -- Chart
1974 10 24 12 18.0 118.1 965 0 9 -- Chart
1974 10 24 18 17.9 116.7 965 0 9 -- Chart
1974 10 25 00 18.0 115.4 965 0 9 -- Chart
1974 10 25 06 18.2 114.2 960 0 9 -- Chart
1974 10 25 12 18.3 113.0 960 0 9 -- Chart
1974 10 25 18 18.4 111.7 960 0 9 -- Chart
1974 10 26 00 18.6 110.6 975 0 9 -- Chart
1974 10 26 06 19.0 109.5 990 0 9 -- Chart
1974 10 26 12 19.6 108.3 996 0 9 -- Chart
1974 10 26 18 19.8 107.2 1000 0 2 -- Chart
1974 10 27 00 19.7 106.0 1000 0 2 -- Chart
1974 10 27 06 19.7 104.7 1004 0 2 -- Chart
1974 10 27 12 19.5 103.5 1004 0 2 -- Chart
Japan Meteorological Agency Best Track Data | Correction Date : 1989-06-01
< Typhoon 197424 1974 Season Typhoon 197426 >

Help